Time;durP1;ratioP1;P1;durP2;ratioP2;P2;SDS_P1;SDS_P2;PMS_P1;PMS_P2;Temp;Humidity;BMP_temperature;BMP_pressure;BME280_temperature;BME280_humidity;BME280_pressure;Samples;Min_cycle;Max_cycle;Signal;HPM_P1;HPM_P2
2023/10/18 00:01:39;;;;;;;0.90;0.90;;;;;;;2.95;88.35;98233.88;4964635;28;19929;-79
2023/10/18 00:04:05;;;;;;;0.90;0.90;;;;;;;2.72;88.17;98237.06;4980899;28;20097;-80
2023/10/18 00:06:32;;;;;;;0.90;0.90;;;;;;;2.71;88.65;98238.78;4966228;28;20038;-79
2023/10/18 00:08:57;;;;;;;1.00;1.00;;;;;;;2.53;89.14;98243.09;4964886;28;20069;-80
2023/10/18 00:11:26;;;;;;;0.90;0.90;;;;;;;2.60;89.57;98231.19;4964275;28;20078;-80
2023/10/18 00:13:53;;;;;;;0.90;0.90;;;;;;;2.47;89.40;98225.25;4963185;28;21064;-80
2023/10/18 00:16:21;;;;;;;0.95;0.95;;;;;;;2.31;89.43;98227.94;4965919;28;20052;-80
2023/10/18 00:18:47;;;;;;;0.90;0.90;;;;;;;2.22;89.50;98228.34;4965246;28;20046;-79
2023/10/18 00:21:13;;;;;;;0.90;0.90;;;;;;;2.14;89.89;98226.13;4979855;28;20385;-81
2023/10/18 00:23:39;;;;;;;0.90;0.90;;;;;;;2.25;90.14;98217.97;4965816;28;20054;-80
2023/10/18 00:26:09;;;;;;;1.00;1.00;;;;;;;2.21;90.24;98212.47;4966896;28;20058;-80
2023/10/18 00:28:38;;;;;;;0.80;0.80;;;;;;;2.10;90.11;98208.34;4955459;28;20047;-80
2023/10/18 00:31:18;;;;;;;0.80;0.80;;;;;;;2.10;90.55;98214.50;4979602;28;20483;-80
2023/10/18 00:33:45;;;;;;;1.00;1.00;;;;;;;2.22;90.84;98207.28;4960051;28;20030;-80
2023/10/18 00:36:11;;;;;;;0.80;0.80;;;;;;;2.22;90.43;98202.03;4963157;28;20126;-80
2023/10/18 00:38:39;;;;;;;0.80;0.80;;;;;;;2.04;90.59;98195.78;4964361;28;20039;-80
2023/10/18 00:41:09;;;;;;;0.88;0.88;;;;;;;1.99;90.73;98206.03;4965355;28;20146;-80
2023/10/18 00:43:36;;;;;;;1.00;1.00;;;;;;;1.88;90.58;98194.06;4981190;28;20425;-80
2023/10/18 00:46:03;;;;;;;1.00;1.00;;;;;;;1.85;90.87;98201.75;4964501;28;20065;-81
2023/10/18 00:48:28;;;;;;;1.10;1.10;;;;;;;1.95;90.76;98192.66;4962555;28;20207;-81
2023/10/18 00:50:56;;;;;;;0.90;0.90;;;;;;;2.01;91.16;98193.91;4963744;28;20185;-81
2023/10/18 00:53:24;;;;;;;0.90;0.90;;;;;;;2.01;90.96;98190.34;4965701;28;20033;-79
2023/10/18 00:55:57;;;;;;;1.00;1.00;;;;;;;1.82;90.74;98198.06;4946216;28;20035;-80
2023/10/18 00:58:30;;;;;;;0.95;0.95;;;;;;;1.88;91.31;98193.16;4964210;28;20818;-80
2023/10/18 01:00:56;;;;;;;0.90;0.90;;;;;;;1.72;91.32;98191.38;4979725;28;20049;-81
2023/10/18 01:03:28;;;;;;;1.00;1.00;;;;;;;1.73;91.33;98187.97;4962602;28;20130;-81
2023/10/18 01:06:08;;;;;;;0.82;0.82;;;;;;;1.74;91.50;98187.13;4964002;28;20488;-80
2023/10/18 01:08:37;;;;;;;0.90;0.90;;;;;;;1.66;91.45;98177.91;4960613;28;20034;-79
2023/10/18 01:11:09;;;;;;;0.90;0.90;;;;;;;1.72;91.61;98167.72;4964258;28;20089;-79
2023/10/18 01:13:42;;;;;;;0.93;0.93;;;;;;;1.84;90.93;98163.16;4966619;28;20043;-79
2023/10/18 01:16:15;;;;;;;1.00;1.00;;;;;;;1.61;91.06;98161.88;4962922;28;20038;-79
2023/10/18 01:18:47;;;;;;;0.90;0.90;;;;;;;1.57;91.28;98161.63;4965340;28;20118;-79
2023/10/18 01:21:15;;;;;;;0.93;0.93;;;;;;;1.54;91.54;98149.25;4961518;28;20038;-80
2023/10/18 01:23:52;;;;;;;1.00;1.00;;;;;;;1.31;91.30;98147.97;4964125;28;20680;-79
2023/10/18 01:26:23;;;;;;;1.00;1.00;;;;;;;1.27;91.33;98141.63;4964335;28;20508;-80
2023/10/18 01:28:50;;;;;;;0.90;0.90;;;;;;;1.13;91.52;98139.97;4963333;28;20117;-80
2023/10/18 01:31:16;;;;;;;1.00;1.00;;;;;;;1.25;91.61;98135.41;4957431;28;20064;-80
2023/10/18 01:33:47;;;;;;;0.90;0.90;;;;;;;1.25;91.32;98137.13;4963523;28;20400;-80
2023/10/18 01:36:15;;;;;;;0.90;0.90;;;;;;;1.45;91.97;98132.97;4977560;28;20038;-78
2023/10/18 01:38:52;;;;;;;1.02;1.02;;;;;;;1.61;91.69;98137.34;4978001;28;20531;-78
2023/10/18 01:44:06;;;;;;;1.05;1.05;;;;;;;1.73;91.12;98128.38;4962724;28;20378;-80
2023/10/18 01:46:36;;;;;;;1.00;1.00;;;;;;;1.46;91.02;98125.16;4964274;28;20122;-80
2023/10/18 01:49:04;;;;;;;0.90;0.90;;;;;;;1.64;91.58;98122.63;4963589;28;20485;-80
2023/10/18 01:51:32;;;;;;;0.90;0.90;;;;;;;1.49;91.20;98117.47;4978720;28;20489;-79
2023/10/18 01:54:02;;;;;;;1.00;1.00;;;;;;;1.75;92.01;98121.47;4979230;28;20042;-79
2023/10/18 01:56:31;;;;;;;1.00;1.00;;;;;;;1.63;91.70;98115.56;4979441;28;20089;-79
2023/10/18 01:58:57;;;;;;;1.00;1.00;;;;;;;1.53;91.42;98108.91;4957546;28;20039;-79
2023/10/18 02:01:23;;;;;;;1.10;1.10;;;;;;;1.39;91.77;98115.16;4964207;28;20101;-79
2023/10/18 02:03:50;;;;;;;1.00;1.00;;;;;;;1.26;91.95;98108.31;4960895;28;20819;-78
2023/10/18 02:06:17;;;;;;;1.10;1.10;;;;;;;1.28;91.82;98109.28;4962674;28;20046;-79
2023/10/18 02:08:42;;;;;;;1.00;1.00;;;;;;;1.15;91.75;98111.13;4964693;28;20669;-79
2023/10/18 02:11:11;;;;;;;1.00;1.00;;;;;;;1.22;91.70;98111.59;4965208;28;20568;-79
2023/10/18 02:13:37;;;;;;;1.00;1.00;;;;;;;1.21;91.66;98098.38;4979680;28;20591;-79
2023/10/18 02:16:14;;;;;;;1.00;1.00;;;;;;;1.07;91.75;98105.47;4978818;28;20043;-79
2023/10/18 02:18:39;;;;;;;1.00;1.00;;;;;;;1.19;92.37;98106.16;4977386;28;20049;-80
2023/10/18 02:21:05;;;;;;;1.00;1.00;;;;;;;1.23;91.89;98091.47;4965171;28;20035;-79
2023/10/18 02:23:34;;;;;;;1.10;1.10;;;;;;;1.21;91.74;98107.16;4968115;28;20898;-79
2023/10/18 02:26:22;;;;;;;0.93;0.93;;;;;;;1.00;91.69;98098.97;4980497;28;20559;-79
2023/10/18 02:28:48;;;;;;;1.00;1.00;;;;;;;1.15;91.80;98104.19;4983629;28;20066;-82
2023/10/18 02:31:14;;;;;;;0.90;0.90;;;;;;;1.25;91.71;98106.50;4983243;28;20542;-79
2023/10/18 02:33:42;;;;;;;1.00;1.00;;;;;;;1.01;91.49;98103.44;4967738;28;20066;-80
2023/10/18 02:36:12;;;;;;;1.00;1.00;;;;;;;0.91;91.91;98102.78;4968291;28;20489;-81
2023/10/18 02:38:40;;;;;;;1.00;1.00;;;;;;;0.83;91.78;98106.75;4965543;28;20568;-80
2023/10/18 02:41:15;;;;;;;1.10;1.10;;;;;;;0.89;91.90;98102.72;4984538;28;20034;-81
2023/10/18 02:43:52;;;;;;;1.05;1.05;;;;;;;0.91;92.33;98095.84;4970633;28;20046;-81
2023/10/18 02:46:23;;;;;;;0.95;0.95;;;;;;;0.99;91.98;98097.16;4965570;28;20090;-82
2023/10/18 02:48:52;;;;;;;1.00;1.00;;;;;;;1.09;92.15;98109.09;4968085;28;20390;-80
2023/10/18 02:51:22;;;;;;;1.10;1.10;;;;;;;0.88;91.72;98102.66;4961336;28;20057;-82
2023/10/18 02:54:10;;;;;;;1.02;1.02;;;;;;;0.87;92.12;98100.84;4979666;28;20050;-79
2023/10/18 02:56:37;;;;;;;0.90;0.90;;;;;;;0.84;92.29;98103.28;4967352;28;20182;-81
2023/10/18 02:59:10;;;;;;;1.00;1.00;;;;;;;0.85;92.45;98103.38;4982353;28;20061;-80
2023/10/18 03:01:40;;;;;;;1.00;1.00;;;;;;;0.88;92.30;98114.06;4966327;28;20125;-81
2023/10/18 03:04:14;;;;;;;1.00;1.00;;;;;;;0.83;92.09;98106.75;4968976;28;20062;-81
2023/10/18 03:06:42;;;;;;;1.00;1.00;;;;;;;0.86;91.95;98104.25;4985476;28;20061;-81
2023/10/18 03:12:15;;;;;;;0.88;0.88;;;;;;;0.84;92.08;98104.19;4912645;29;20062;-81
2023/10/18 03:14:53;;;;;;;1.00;1.00;;;;;;;0.92;92.19;98100.28;4928617;29;20664;-82
2023/10/18 03:19:50;;;;;;;1.00;1.00;;;;;;;0.94;92.21;98098.63;4982279;28;20038;-81
2023/10/18 03:22:19;;;;;;;1.00;1.00;;;;;;;0.95;92.18;98084.69;4968592;28;20030;-81
2023/10/18 03:24:55;;;;;;;1.00;1.00;;;;;;;0.97;92.02;98084.78;4968320;28;20569;-81
2023/10/18 03:27:21;;;;;;;1.00;1.00;;;;;;;1.03;92.37;98077.25;4967594;28;20049;-80
2023/10/18 03:29:47;;;;;;;1.10;1.10;;;;;;;0.97;92.02;98077.81;4984085;28;20527;-81
2023/10/18 03:32:19;;;;;;;1.02;1.02;;;;;;;0.93;91.51;98072.28;4978422;28;20043;-79
2023/10/18 03:34:46;;;;;;;1.00;1.00;;;;;;;1.16;91.71;98069.22;4962137;28;20042;-80
2023/10/18 03:37:33;;;;;;;1.00;1.00;;;;;;;1.02;91.84;98059.69;4963975;28;20050;-79
2023/10/18 03:39:57;;;;;;;1.10;1.10;;;;;;;1.19;91.47;98053.59;4966507;28;20560;-80
2023/10/18 03:42:45;;;;;;;1.00;1.00;;;;;;;1.21;91.42;98059.84;4965443;28;20043;-80
2023/10/18 03:45:13;;;;;;;0.90;0.90;;;;;;;1.21;91.74;98067.75;4964583;28;20039;-80
2023/10/18 03:47:39;;;;;;;1.00;1.00;;;;;;;1.33;91.44;98062.22;4982128;28;20949;-79
2023/10/18 03:50:13;;;;;;;1.00;1.00;;;;;;;1.43;91.33;98066.25;4982097;28;20042;-80
2023/10/18 03:52:39;;;;;;;1.10;1.10;;;;;;;1.24;91.18;98061.72;4965640;28;20035;-79
2023/10/18 03:55:18;;;;;;;1.10;1.10;;;;;;;1.12;91.32;98054.09;4981310;28;20039;-80
2023/10/18 03:57:44;;;;;;;0.90;0.90;;;;;;;1.25;91.41;98053.06;4981153;28;21080;-80
2023/10/18 04:02:52;;;;;;;1.00;1.00;;;;;;;0.99;91.35;98038.47;4965113;28;20050;-80
2023/10/18 04:08:06;;;;;;;1.00;1.00;;;;;;;1.18;91.15;98028.16;4966020;28;20389;-80
2023/10/18 04:10:35;;;;;;;1.00;1.00;;;;;;;1.06;91.28;98029.22;4967653;28;20711;-80
2023/10/18 04:13:02;;;;;;;1.00;1.00;;;;;;;0.96;91.38;98025.19;4964127;28;20043;-82
2023/10/18 04:15:34;;;;;;;1.00;1.00;;;;;;;1.08;91.51;98027.59;4965880;28;20042;-82
2023/10/18 04:18:10;;;;;;;1.00;1.00;;;;;;;1.18;91.34;98033.41;4982884;28;20150;-81
2023/10/18 04:20:37;;;;;;;1.00;1.00;;;;;;;1.16;91.44;98048.19;4981741;28;20059;-83
2023/10/18 04:23:18;;;;;;;1.10;1.10;;;;;;;1.12;91.27;98037.44;4980891;28;20035;-82
2023/10/18 04:25:57;;;;;;;1.00;1.00;;;;;;;1.07;91.26;98047.69;4967255;28;20039;-80
2023/10/18 04:28:38;;;;;;;1.00;1.00;;;;;;;1.22;91.40;98045.91;4967039;28;20097;-82
2023/10/18 04:31:08;;;;;;;1.00;1.00;;;;;;;1.12;91.54;98030.47;4962873;28;20855;-81
2023/10/18 04:33:35;;;;;;;1.00;1.00;;;;;;;0.97;91.55;98024.38;4966677;28;20053;-81
2023/10/18 04:36:14;;;;;;;1.00;1.00;;;;;;;1.02;91.70;98009.78;4967436;28;20053;-82
2023/10/18 04:38:47;;;;;;;1.00;1.00;;;;;;;0.94;91.66;98003.19;4965933;28;20116;-81
2023/10/18 04:43:53;;;;;;;1.00;1.00;;;;;;;1.08;91.72;97994.34;4965617;28;20032;-83
2023/10/18 04:46:25;;;;;;;1.00;1.00;;;;;;;1.18;91.18;97988.75;4968057;28;20069;-81
2023/10/18 04:51:27;;;;;;;1.00;1.00;;;;;;;1.19;91.01;97995.81;4965089;28;20051;-81
2023/10/18 04:56:56;;;;;;;1.08;1.08;;;;;;;0.95;91.29;97987.50;4938846;28;20054;-82
2023/10/18 05:04:34;;;;;;;0.90;0.90;;;;;;;0.80;91.99;97973.53;4983418;28;20772;-81
2023/10/18 05:07:03;;;;;;;1.00;1.00;;;;;;;0.82;91.96;97965.78;4963524;28;20046;-80
2023/10/18 05:09:30;;;;;;;0.90;0.90;;;;;;;0.70;91.95;97961.63;4964859;28;20050;-82
2023/10/18 05:12:07;;;;;;;1.00;1.00;;;;;;;0.77;92.20;97962.91;4964513;28;20127;-84
2023/10/18 05:15:17;;;;;;;1.10;1.10;;;;;;;0.94;92.41;97966.41;4980938;28;20043;-82
2023/10/18 05:17:23;;;;;;;1.10;1.10;;;;;;;0.90;92.30;97956.56;4963640;28;20156;-82
2023/10/18 05:19:49;;;;;;;1.00;1.00;;;;;;;0.79;91.92;97962.97;4971233;28;20039;-82
2023/10/18 05:22:25;;;;;;;1.00;1.00;;;;;;;0.85;92.31;97969.44;4986502;28;20045;-81
2023/10/18 05:24:55;;;;;;;1.00;1.00;;;;;;;0.98;92.15;97969.28;4953098;28;20050;-82
2023/10/18 05:27:27;;;;;;;1.02;1.02;;;;;;;1.09;92.15;97967.25;4967196;28;20046;-80
2023/10/18 05:30:14;;;;;;;1.02;1.02;;;;;;;0.99;92.23;97970.19;4966234;28;20072;-84
2023/10/18 05:32:49;;;;;;;1.00;1.00;;;;;;;0.99;92.33;97964.94;4966999;28;20728;-81
2023/10/18 05:35:21;;;;;;;1.00;1.00;;;;;;;0.97;92.04;97956.09;4982952;28;20170;-81
2023/10/18 05:37:59;;;;;;;1.00;1.00;;;;;;;0.81;92.11;97959.59;4967753;28;20050;-81
2023/10/18 05:43:04;;;;;;;0.90;0.90;;;;;;;1.03;92.16;97961.66;4963278;28;20109;-81
2023/10/18 05:45:31;;;;;;;1.00;1.00;;;;;;;1.04;92.51;97973.97;4965414;28;20069;-81
2023/10/18 05:48:12;;;;;;;1.00;1.00;;;;;;;0.94;92.32;97971.69;4961619;28;20098;-85
2023/10/18 05:50:38;;;;;;;1.00;1.00;;;;;;;1.11;92.30;97957.72;4963982;28;20034;-81
2023/10/18 05:53:10;;;;;;;1.00;1.00;;;;;;;1.01;92.10;97956.34;4968785;28;20042;-81
2023/10/18 05:55:38;;;;;;;1.00;1.00;;;;;;;1.06;92.34;97960.94;4970970;28;20043;-81
2023/10/18 05:58:07;;;;;;;1.00;1.00;;;;;;;1.01;92.15;97958.06;4968693;28;20049;-81
2023/10/18 06:00:33;;;;;;;1.00;1.00;;;;;;;1.10;92.28;97960.25;4970992;28;20039;-81
2023/10/18 06:03:02;;;;;;;1.00;1.00;;;;;;;1.16;92.27;97957.97;4971226;28;20038;-81
2023/10/18 06:05:33;;;;;;;1.00;1.00;;;;;;;1.29;92.54;97955.16;4986712;28;20046;-82
2023/10/18 06:07:59;;;;;;;1.00;1.00;;;;;;;1.51;92.39;97957.19;4970501;28;20046;-80
2023/10/18 06:10:26;;;;;;;1.00;1.00;;;;;;;1.56;92.12;97954.78;4971944;28;20041;-81
2023/10/18 06:13:27;;;;;;;1.00;1.00;;;;;;;1.50;92.02;97944.88;4967729;28;20039;-81
2023/10/18 06:15:44;;;;;;;1.00;1.00;;;;;;;1.51;91.75;97946.66;4980148;28;20087;-82
2023/10/18 06:18:17;;;;;;;0.90;0.90;;;;;;;1.52;91.80;97951.09;4968862;28;20039;-81
2023/10/18 06:20:44;;;;;;;1.00;1.00;;;;;;;1.68;91.60;97945.81;4966808;28;20042;-81
2023/10/18 06:23:36;;;;;;;;;;;;;;;1.79;91.09;97948.97;4969209;28;20053;-81
2023/10/18 06:26:08;;;;;;;1.00;1.00;;;;;;;1.73;91.17;97938.16;4983546;28;19956;-83
2023/10/18 06:28:37;;;;;;;1.00;1.00;;;;;;;1.82;91.06;97940.31;4965251;28;20102;-83
2023/10/18 06:31:03;;;;;;;1.00;1.00;;;;;;;1.92;90.48;97945.25;4968479;28;20050;-80
2023/10/18 06:33:35;;;;;;;1.00;1.00;;;;;;;1.96;90.19;97948.06;4971104;28;20070;-83
2023/10/18 06:36:11;;;;;;;0.90;0.90;;;;;;;2.20;89.54;97951.00;4943563;29;20039;-81
2023/10/18 06:38:37;;;;;;;1.00;1.00;;;;;;;2.23;88.72;97945.91;4958181;28;20047;-80
2023/10/18 06:41:18;;;;;;;0.90;0.90;;;;;;;2.17;88.86;97937.72;4952453;28;20181;-80
2023/10/18 06:43:48;;;;;;;0.90;0.90;;;;;;;2.17;88.71;97945.63;4956681;28;20129;-80
2023/10/18 06:46:27;;;;;;;1.00;1.00;;;;;;;2.27;88.57;97939.97;4969362;28;20089;-80
2023/10/18 06:48:58;;;;;;;0.90;0.90;;;;;;;2.41;88.73;97934.47;4972269;28;20046;-81
2023/10/18 06:51:40;;;;;;;0.90;0.90;;;;;;;2.51;88.18;97932.34;4964766;28;20058;-80
2023/10/18 06:54:07;;;;;;;1.00;1.00;;;;;;;2.73;88.16;97928.06;4963002;28;20128;-80
2023/10/18 06:56:46;;;;;;;0.95;0.95;;;;;;;2.91;87.47;97920.13;4971792;28;20039;-79
2023/10/18 06:59:11;;;;;;;0.90;0.90;;;;;;;2.99;87.61;97916.13;4967983;28;20063;-81
2023/10/18 07:01:55;;;;;;;0.90;0.90;;;;;;;3.26;87.14;97909.47;4957294;28;20554;-82
2023/10/18 07:04:35;;;;;;;1.00;1.00;;;;;;;3.55;84.97;97904.56;4972027;28;20655;-80
2023/10/18 07:07:01;;;;;;;0.90;0.90;;;;;;;3.69;85.41;97891.91;4962359;28;20041;-80
2023/10/18 07:09:31;;;;;;;0.80;0.80;;;;;;;3.81;86.08;97882.78;4975539;28;20396;-81
2023/10/18 07:11:57;;;;;;;0.90;0.90;;;;;;;4.16;85.69;97883.31;4975204;28;20154;-80
2023/10/18 07:14:24;;;;;;;0.90;0.90;;;;;;;4.52;85.42;97886.53;4975734;28;20050;-80
2023/10/18 07:16:54;;;;;;;0.90;0.90;;;;;;;4.80;83.19;97884.97;4975648;28;20034;-79
2023/10/18 07:19:47;;;;;;;0.80;0.80;;;;;;;5.07;83.65;97890.38;4973104;28;20046;-81
2023/10/18 07:22:19;;;;;;;0.80;0.80;;;;;;;5.41;82.92;97876.59;4984005;28;20511;-82
2023/10/18 07:24:54;;;;;;;0.80;0.80;;;;;;;5.77;82.98;97871.69;4973079;28;20061;-81
2023/10/18 07:27:23;;;;;;;0.73;0.73;;;;;;;6.12;81.49;97864.97;4966733;28;20408;-80
2023/10/18 07:29:49;;;;;;;0.80;0.80;;;;;;;6.20;79.44;97867.88;4967078;28;20039;-81
2023/10/18 07:32:23;;;;;;;0.70;0.70;;;;;;;6.22;77.84;97876.75;4974607;28;20081;-81
2023/10/18 07:34:54;;;;;;;0.70;0.70;;;;;;;6.14;80.52;97867.69;4975093;28;20117;-81
2023/10/18 07:37:32;;;;;;;0.80;0.80;;;;;;;6.25;80.89;97871.56;4973682;28;20074;-81
2023/10/18 07:39:59;;;;;;;0.70;0.70;;;;;;;6.42;77.75;97875.66;4975071;28;20046;-81
2023/10/18 07:42:34;;;;;;;0.80;0.80;;;;;;;6.43;77.19;97869.50;4968726;28;20043;-80
2023/10/18 07:45:04;;;;;;;0.73;0.73;;;;;;;6.53;76.82;97861.84;4965178;28;20043;-81
2023/10/18 07:47:32;;;;;;;0.80;0.80;;;;;;;6.86;77.88;97862.84;4970357;28;20122;-81
2023/10/18 07:50:00;;;;;;;0.70;0.70;;;;;;;6.92;75.35;97847.13;4985442;28;20135;-80
2023/10/18 07:52:26;;;;;;;0.80;0.80;;;;;;;6.78;75.46;97843.16;4972473;28;20389;-82
2023/10/18 07:54:51;;;;;;;0.70;0.70;;;;;;;6.86;76.31;97841.63;4975017;28;20484;-81
2023/10/18 07:57:17;;;;;;;0.80;0.80;;;;;;;7.02;75.45;97831.47;4970767;28;20035;-82
2023/10/18 07:59:46;;;;;;;0.80;0.80;;;;;;;7.23;74.21;97826.75;4974088;28;20127;-83
2023/10/18 08:02:26;;;;;;;0.70;0.70;;;;;;;7.13;74.78;97827.34;4973900;28;20043;-81
2023/10/18 08:04:52;;;;;;;0.70;0.70;;;;;;;7.26;73.90;97816.22;4971739;28;20530;-83
2023/10/18 08:07:22;;;;;;;0.70;0.70;;;;;;;7.43;74.34;97803.44;4970988;28;20038;-81
2023/10/18 08:09:54;;;;;;;0.70;0.70;;;;;;;7.57;73.52;97798.47;4970637;28;20125;-82
2023/10/18 08:12:29;;;;;;;0.70;0.70;;;;;;;7.71;72.00;97800.63;4966656;28;20051;-84
2023/10/18 08:14:56;;;;;;;0.60;0.60;;;;;;;7.80;71.56;97804.34;4970770;28;20039;-83
2023/10/18 08:17:29;;;;;;;0.70;0.70;;;;;;;8.02;72.85;97789.84;4971338;28;20035;-82
2023/10/18 08:22:51;;;;;;;0.80;0.80;;;;;;;8.35;70.30;97777.34;4954345;28;20118;-86
2023/10/18 08:25:31;;;;;;;0.70;0.70;;;;;;;8.85;70.04;97771.34;4961646;28;20043;-84
2023/10/18 08:27:58;;;;;;;0.70;0.70;;;;;;;8.88;68.66;97776.75;4969226;28;20053;-82
2023/10/18 08:33:08;;;;;;;0.70;0.70;;;;;;;9.57;67.94;97765.63;4966957;28;20731;-84
2023/10/18 08:35:36;;;;;;;0.70;0.70;;;;;;;9.95;66.04;97758.25;4967435;28;20043;-84
2023/10/18 08:38:01;;;;;;;0.70;0.70;;;;;;;10.09;64.72;97746.94;4982775;28;20046;-83
2023/10/18 08:43:24;;;;;;;0.60;0.60;;;;;;;10.11;63.80;97756.75;4964979;28;20066;-83
2023/10/18 08:45:50;;;;;;;0.60;0.60;;;;;;;10.42;63.05;97760.78;4967520;28;20046;-83
2023/10/18 08:48:17;;;;;;;0.60;0.60;;;;;;;10.80;61.80;97755.06;4967363;28;20069;-82
2023/10/18 08:50:45;;;;;;;0.60;0.60;;;;;;;11.31;60.43;97761.88;4970238;28;20038;-84
2023/10/18 08:53:15;;;;;;;0.50;0.50;;;;;;;11.46;60.91;97767.38;4965828;28;20412;-83
2023/10/18 08:55:45;;;;;;;0.50;0.50;;;;;;;11.79;59.10;97760.56;4966657;28;20397;-82
2023/10/18 08:58:22;;;;;;;0.60;0.60;;;;;;;12.29;57.11;97760.09;4961238;28;20039;-83
2023/10/18 09:03:27;;;;;;;0.60;0.60;;;;;;;13.30;54.09;97760.59;4968120;28;20042;-80
2023/10/18 09:06:04;;;;;;;0.40;0.40;;;;;;;13.79;52.00;97749.94;4970771;28;20077;-90
2023/10/18 09:08:41;;;;;;;0.50;0.50;;;;;;;13.96;52.29;97750.88;4969988;28;20178;-79
2023/10/18 09:11:21;;;;;;;0.40;0.40;;;;;;;13.50;52.20;97744.56;4983534;28;20429;-81
2023/10/18 09:16:38;;;;;;;0.40;0.40;;;;;;;13.72;53.07;97745.50;4969203;28;20744;-81
2023/10/18 09:19:05;;;;;;;0.30;0.30;;;;;;;14.92;48.93;97736.38;4971047;28;20039;-81
2023/10/18 09:21:42;;;;;;;0.40;0.40;;;;;;;15.56;47.51;97735.13;4970946;28;20042;-81
2023/10/18 09:24:09;;;;;;;0.40;0.40;;;;;;;15.67;46.69;97738.69;4972252;28;20221;-81
2023/10/18 09:26:44;;;;;;;0.32;0.32;;;;;;;14.49;49.88;97749.94;4966173;28;20501;-81
2023/10/18 09:29:10;;;;;;;0.30;0.30;;;;;;;14.92;50.31;97751.59;4967953;28;20043;-80
2023/10/18 09:32:02;;;;;;;0.30;0.30;;;;;;;15.53;48.46;97756.69;4965265;28;20559;-81
2023/10/18 09:34:33;;;;;;;0.30;0.30;;;;;;;15.92;46.90;97750.16;4983526;28;20393;-81
2023/10/18 09:36:59;;;;;;;0.30;0.30;;;;;;;15.58;46.63;97736.94;4970698;28;20054;-81
2023/10/18 09:39:44;;;;;;;0.30;0.30;;;;;;;16.10;46.32;97725.81;4967085;28;20046;-81
2023/10/18 09:42:12;;;;;;;0.30;0.30;;;;;;;16.12;45.70;97732.03;4981831;28;20486;-82
2023/10/18 09:44:41;;;;;;;0.30;0.30;;;;;;;16.00;47.14;97734.88;4986055;28;20559;-81
2023/10/18 09:47:07;;;;;;;0.40;0.40;;;;;;;16.32;46.70;97736.34;4957544;28;20034;-81
2023/10/18 09:49:34;;;;;;;0.30;0.30;;;;;;;16.52;46.05;97725.38;4986193;28;20078;-81
2023/10/18 09:52:03;;;;;;;0.30;0.30;;;;;;;17.25;44.44;97718.22;4970580;28;20069;-81
2023/10/18 09:54:34;;;;;;;0.20;0.20;;;;;;;17.12;43.42;97717.53;4970676;28;20043;-82
2023/10/18 09:57:01;;;;;;;0.30;0.30;;;;;;;17.37;43.15;97708.19;4966638;28;20105;-83
2023/10/18 09:59:31;;;;;;;0.30;0.30;;;;;;;18.64;40.70;97711.47;4966907;28;20405;-82
2023/10/18 10:04:25;;;;;;;0.20;0.20;;;;;;;17.06;43.76;97702.34;4970218;28;20133;-81
2023/10/18 10:06:55;;;;;;;0.20;0.20;;;;;;;16.20;45.95;97699.69;4967040;28;20039;-80
2023/10/18 10:09:38;;;;;;;0.20;0.20;;;;;;;15.59;47.17;97695.69;4968087;28;20050;-82
2023/10/18 10:12:10;;;;;;;0.20;0.20;;;;;;;17.02;43.89;97687.09;4968936;28;20046;-82
2023/10/18 10:14:37;;;;;;;0.30;0.30;;;;;;;18.70;41.34;97684.38;4969461;28;20123;-80
2023/10/18 10:17:08;;;;;;;0.20;0.20;;;;;;;19.27;39.50;97683.16;4970097;28;20093;-81
2023/10/18 10:19:40;;;;;;;0.20;0.20;;;;;;;19.16;39.50;97672.59;4971185;28;20141;-81
2023/10/18 10:22:08;;;;;;;0.20;0.20;;;;;;;19.00;40.21;97670.25;4970367;28;20070;-83
2023/10/18 10:24:58;;;;;;;0.20;0.20;;;;;;;18.26;41.19;97657.31;4970232;28;20041;-83
2023/10/18 10:30:03;;;;;;;0.20;0.20;;;;;;;18.81;40.69;97653.53;4971331;28;20382;-81
2023/10/18 10:32:30;;;;;;;0.30;0.30;;;;;;;21.21;36.23;97633.81;4964053;28;20047;-82
2023/10/18 10:35:16;;;;;;;0.20;0.20;;;;;;;21.93;34.43;97632.41;4968936;28;20122;-81
2023/10/18 10:37:49;;;;;;;0.20;0.20;;;;;;;21.92;34.88;97624.31;4965077;28;20047;-82
2023/10/18 10:40:35;;;;;;;0.20;0.20;;;;;;;21.88;35.11;97625.34;4967065;28;20039;-83
2023/10/18 10:43:02;;;;;;;0.20;0.20;;;;;;;21.17;36.45;97622.16;4955950;28;20766;-80
2023/10/18 10:45:38;;;;;;;;;;;;;;;19.18;40.08;97618.47;4970113;28;20042;-81
2023/10/18 10:48:21;;;;;;;0.20;0.20;;;;;;;19.66;39.48;97612.84;4968627;28;20692;-80
2023/10/18 10:51:08;;;;;;;0.20;0.20;;;;;;;20.82;36.34;97608.81;4972042;28;20046;-81
2023/10/18 10:53:50;;;;;;;0.20;0.20;;;;;;;20.67;37.65;97605.59;4967447;28;20043;-81
2023/10/18 10:56:28;;;;;;;0.20;0.20;;;;;;;21.65;33.74;97589.00;4964576;28;20086;-82
2023/10/18 10:59:03;;;;;;;0.20;0.20;;;;;;;19.85;36.97;97597.03;4972473;28;20535;-82
2023/10/18 11:01:57;;;;;;;0.10;0.10;;;;;;;18.47;39.66;97602.84;4973508;28;20460;-82
2023/10/18 11:04:25;;;;;;;0.10;0.10;;;;;;;17.68;41.39;97595.31;4972557;28;20045;-81
2023/10/18 11:07:04;;;;;;;0.20;0.20;;;;;;;17.49;42.70;97588.47;4972783;28;20137;-81
2023/10/18 11:09:34;;;;;;;0.20;0.20;;;;;;;17.70;41.96;97577.28;4968244;28;20043;-81
2023/10/18 11:12:13;;;;;;;0.20;0.20;;;;;;;18.13;40.79;97571.13;4972042;28;20031;-81
2023/10/18 11:14:42;;;;;;;0.20;0.20;;;;;;;18.87;39.21;97569.59;4986047;28;20485;-81
2023/10/18 11:19:53;;;;;;;0.20;0.20;;;;;;;19.13;38.12;97559.09;4969279;28;20049;-81
2023/10/18 11:22:20;;;;;;;0.20;0.20;;;;;;;19.23;39.02;97559.75;4968580;28;20042;-81
2023/10/18 11:24:49;;;;;;;0.20;0.20;;;;;;;19.40;38.16;97565.66;4970599;28;20057;-80
2023/10/18 11:27:25;;;;;;;0.20;0.20;;;;;;;19.87;37.39;97554.56;4971028;28;20125;-80
2023/10/18 11:29:56;;;;;;;0.40;0.40;;;;;;;22.18;34.01;97550.09;4983465;28;20481;-82
2023/10/18 11:32:28;;;;;;;0.30;0.30;;;;;;;22.40;33.55;97540.22;4971029;28;20562;-81
2023/10/18 11:35:10;;;;;;;0.20;0.20;;;;;;;19.57;37.44;97534.56;4972642;28;20046;-80
2023/10/18 11:37:37;;;;;;;0.20;0.20;;;;;;;18.96;38.23;97529.75;4968624;28;20426;-80
2023/10/18 11:40:29;;;;;;;0.17;0.17;;;;;;;17.68;41.75;97525.19;4967983;28;20051;-81
2023/10/18 11:43:07;;;;;;;0.20;0.20;;;;;;;17.29;44.06;97524.06;4970498;28;20050;-81
2023/10/18 11:45:33;;;;;;;0.20;0.20;;;;;;;18.10;41.79;97525.28;4968280;28;20047;-82
2023/10/18 11:48:02;;;;;;;0.20;0.20;;;;;;;17.70;42.07;97512.53;4972382;28;20142;-81
2023/10/18 11:50:48;;;;;;;0.20;0.20;;;;;;;18.68;39.99;97512.34;4971480;28;20142;-82
2023/10/18 11:53:22;;;;;;;0.20;0.20;;;;;;;17.67;42.55;97512.59;4986198;28;20065;-81
2023/10/18 11:55:58;;;;;;;0.20;0.20;;;;;;;18.51;40.06;97523.53;4965105;28;20058;-81
2023/10/18 11:58:26;;;;;;;0.10;0.10;;;;;;;18.41;40.10;97528.25;4969977;28;20682;-81
2023/10/18 12:01:00;;;;;;;0.20;0.20;;;;;;;18.46;39.94;97517.34;4968671;28;20069;-82
2023/10/18 12:03:33;;;;;;;0.10;0.10;;;;;;;18.06;41.45;97503.78;4969594;28;20074;-81
2023/10/18 12:06:00;;;;;;;0.20;0.20;;;;;;;16.68;43.51;97487.31;4984935;28;20046;-80
2023/10/18 12:08:33;;;;;;;0.20;0.20;;;;;;;16.31;44.01;97478.84;4971506;28;20412;-80
2023/10/18 12:11:04;;;;;;;0.20;0.20;;;;;;;16.59;44.84;97469.47;4984922;28;20046;-83
2023/10/18 12:13:29;;;;;;;0.20;0.20;;;;;;;16.15;44.89;97479.06;4969874;28;20031;-79
2023/10/18 12:16:00;;;;;;;0.20;0.20;;;;;;;16.46;44.70;97473.25;4982753;28;20031;-80
2023/10/18 12:18:27;;;;;;;0.25;0.25;;;;;;;16.34;44.66;97479.72;4970232;28;20129;-80
2023/10/18 12:20:54;;;;;;;0.22;0.22;;;;;;;15.95;45.42;97466.75;4971014;28;20038;-83
2023/10/18 12:23:19;;;;;;;0.30;0.30;;;;;;;16.18;45.71;97461.97;4969474;28;20038;-79
2023/10/18 12:25:46;;;;;;;0.30;0.30;;;;;;;15.84;46.34;97466.91;4969432;28;20053;-81
2023/10/18 12:28:12;;;;;;;0.30;0.30;;;;;;;16.16;45.70;97464.69;4965689;28;20093;-79
2023/10/18 12:30:51;;;;;;;0.30;0.30;;;;;;;16.29;45.60;97454.66;4969176;28;20069;-80
2023/10/18 12:33:50;;;;;;;0.30;0.30;;;;;;;15.85;46.52;97456.13;4966531;28;20039;-80
2023/10/18 12:36:09;;;;;;;0.30;0.30;;;;;;;16.18;46.59;97435.06;4966630;28;20066;-81
2023/10/18 12:38:36;;;;;;;0.30;0.30;;;;;;;16.23;47.05;97438.56;4984098;28;20043;-79
2023/10/18 12:41:10;;;;;;;0.30;0.30;;;;;;;16.19;46.91;97435.94;4968592;28;20038;-81
2023/10/18 12:43:38;;;;;;;0.30;0.30;;;;;;;16.30;47.51;97428.63;4967722;28;20121;-79
2023/10/18 12:46:04;;;;;;;0.20;0.20;;;;;;;16.57;46.86;97430.88;4967534;28;20680;-81
2023/10/18 12:48:31;;;;;;;0.30;0.30;;;;;;;16.56;46.51;97426.44;4967742;28;20049;-80
2023/10/18 12:50:56;;;;;;;0.20;0.20;;;;;;;16.45;48.25;97417.63;4966594;28;20109;-80